createdAt,value
2019-05-29T00:00:48.340Z,10.50
2019-05-29T00:03:18.538Z,10.40
2019-05-29T00:05:47.167Z,10.40
2019-05-29T00:08:15.593Z,10.40
2019-05-29T00:10:44.029Z,10.30
2019-05-29T00:13:12.476Z,10.30
2019-05-29T00:15:40.903Z,10.30
2019-05-29T00:18:12.479Z,10.20
2019-05-29T00:20:41.491Z,10.20
2019-05-29T00:23:10.508Z,10.20
2019-05-29T00:25:39.365Z,10.20
2019-05-29T00:28:08.469Z,10.10
2019-05-29T00:30:37.351Z,10.10
2019-05-29T00:33:06.142Z,10.10
2019-05-29T00:35:34.579Z,10.00
2019-05-29T00:38:03.087Z,10.00
2019-05-29T00:40:31.620Z,10.00
2019-05-29T00:43:00.389Z,9.90
2019-05-29T00:45:28.813Z,9.90
2019-05-29T00:47:57.252Z,9.90
2019-05-29T00:50:25.680Z,9.90
2019-05-29T00:52:54.103Z,9.80
2019-05-29T00:55:22.819Z,9.80
2019-05-29T00:57:51.609Z,9.80
2019-05-29T01:00:20.740Z,9.70
2019-05-29T01:02:49.232Z,9.70
2019-05-29T01:05:18.196Z,9.60
2019-05-29T01:07:46.693Z,9.50
2019-05-29T01:10:36.009Z,9.50
2019-05-29T01:13:04.445Z,9.40
2019-05-29T01:15:33.238Z,9.40
2019-05-29T01:18:01.720Z,9.30
2019-05-29T01:20:30.244Z,9.20
2019-05-29T01:22:58.982Z,9.20
2019-05-29T01:25:27.432Z,9.10
2019-05-29T01:27:55.886Z,9.00
2019-05-29T01:30:24.332Z,8.90
2019-05-29T01:32:53.047Z,8.90
2019-05-29T01:35:22.066Z,8.90
2019-05-29T01:37:50.694Z,8.80
2019-05-29T01:40:24.666Z,8.70
2019-05-29T01:42:50.174Z,8.70
2019-05-29T01:45:19.436Z,8.70
2019-05-29T01:47:48.005Z,8.60
2019-05-29T01:50:17.680Z,8.50
2019-05-29T01:52:46.633Z,8.50
2019-05-29T01:55:15.793Z,8.40
2019-05-29T01:57:44.271Z,8.40
2019-05-29T02:00:15.681Z,8.30
2019-05-29T02:02:44.262Z,8.30
2019-05-29T02:05:13.171Z,8.20
2019-05-29T02:07:41.685Z,8.10
2019-05-29T02:10:10.266Z,8.10
2019-05-29T02:12:38.747Z,8.00
2019-05-29T02:15:23.078Z,8.00
2019-05-29T02:17:39.434Z,7.90
2019-05-29T02:20:09.029Z,7.90
2019-05-29T02:22:37.899Z,7.90
2019-05-29T02:25:07.346Z,7.80
2019-05-29T02:27:36.193Z,7.80
2019-05-29T02:30:09.647Z,7.80
2019-05-29T02:32:38.371Z,7.70
2019-05-29T02:35:07.566Z,7.70
2019-05-29T02:37:36.030Z,7.60
2019-05-29T02:40:06.471Z,7.50
2019-05-29T02:42:35.752Z,7.40
2019-05-29T02:45:06.420Z,7.40
2019-05-29T02:47:34.855Z,7.30
2019-05-29T02:50:05.087Z,7.30
2019-05-29T02:52:33.529Z,7.20
2019-05-29T02:55:02.322Z,7.10
2019-05-29T02:57:31.045Z,7.10
2019-05-29T03:00:00.000Z,7.00
2019-05-29T03:02:30.201Z,6.90
2019-05-29T03:04:58.948Z,6.80
2019-05-29T03:07:28.527Z,6.70
2019-05-29T03:09:57.515Z,6.60
2019-05-29T03:12:27.098Z,6.60
2019-05-29T03:14:55.672Z,6.50
2019-05-29T03:17:25.637Z,6.40
2019-05-29T03:19:54.273Z,6.40
2019-05-29T03:22:24.088Z,6.30
2019-05-29T03:24:52.623Z,6.30
2019-05-29T03:27:21.525Z,6.30
2019-05-29T03:29:50.327Z,6.20
2019-05-29T03:32:19.111Z,6.20
2019-05-29T03:34:48.313Z,6.30
2019-05-29T03:37:17.025Z,6.30
2019-05-29T03:39:45.790Z,6.30
2019-05-29T03:42:14.254Z,6.20
2019-05-29T03:44:42.751Z,6.20
2019-05-29T03:47:11.293Z,6.30
2019-05-29T03:49:39.794Z,6.30
2019-05-29T03:52:08.262Z,6.30
2019-05-29T03:54:36.686Z,6.50
2019-05-29T03:57:05.499Z,6.50
2019-05-29T03:59:35.332Z,6.60
2019-05-29T04:02:04.095Z,6.70
2019-05-29T04:04:33.537Z,6.80
2019-05-29T04:07:02.549Z,7.00
2019-05-29T04:09:31.351Z,7.10
2019-05-29T04:11:59.909Z,7.30
2019-05-29T04:14:29.694Z,7.40
2019-05-29T04:17:00.613Z,7.50
2019-05-29T04:19:32.017Z,7.60
2019-05-29T04:22:03.500Z,7.60
2019-05-29T04:24:33.927Z,7.60
2019-05-29T04:27:04.173Z,7.60
2019-05-29T04:29:34.221Z,7.70
2019-05-29T04:32:02.833Z,7.90
2019-05-29T04:34:31.725Z,8.00
2019-05-29T04:37:01.449Z,8.10
2019-05-29T04:39:30.603Z,8.20
2019-05-29T04:41:59.246Z,8.50
2019-05-29T04:44:28.792Z,8.60
2019-05-29T04:47:10.101Z,8.80
2019-05-29T04:49:29.275Z,9.00
2019-05-29T04:51:58.028Z,9.20
2019-05-29T04:54:26.466Z,9.50
2019-05-29T04:56:54.992Z,9.80
2019-05-29T04:59:23.493Z,10.10
2019-05-29T05:02:11.578Z,10.30
2019-05-29T05:04:40.013Z,10.60
2019-05-29T05:07:08.474Z,10.60
2019-05-29T05:09:37.568Z,10.60
2019-05-29T05:12:06.129Z,10.90
2019-05-29T05:14:35.455Z,11.40
2019-05-29T05:17:04.206Z,11.80
2019-05-29T05:19:33.899Z,12.70
2019-05-29T05:22:02.517Z,12.90
2019-05-29T05:24:34.172Z,13.50
2019-05-29T05:27:03.063Z,14.30
2019-05-29T05:29:32.136Z,15.60
2019-05-29T05:32:00.628Z,16.50
2019-05-29T05:34:30.456Z,17.00
2019-05-29T05:36:59.358Z,16.70
2019-05-29T05:39:28.184Z,16.70
2019-05-29T05:41:56.946Z,16.50
2019-05-29T05:44:25.734Z,16.90
2019-05-29T05:46:54.162Z,17.80
2019-05-29T05:49:22.614Z,17.80
2019-05-29T05:51:51.046Z,17.80
2019-05-29T05:54:19.777Z,18.20
2019-05-29T05:56:48.571Z,17.90
2019-05-29T05:59:17.021Z,17.90
2019-05-29T06:01:45.462Z,18.30
2019-05-29T06:04:14.333Z,17.70
2019-05-29T06:06:42.766Z,17.80
2019-05-29T06:09:11.509Z,17.00
2019-05-29T06:11:40.425Z,17.10
2019-05-29T06:14:09.205Z,17.20
2019-05-29T06:16:38.640Z,17.80
2019-05-29T06:19:07.493Z,18.20
2019-05-29T06:21:36.710Z,19.30
2019-05-29T06:24:05.491Z,19.10
2019-05-29T06:26:34.831Z,18.60
2019-05-29T06:29:03.420Z,17.50
2019-05-29T06:31:33.215Z,15.90
2019-05-29T06:34:02.105Z,15.40
2019-05-29T06:36:30.541Z,15.00
2019-05-29T06:38:59.269Z,13.90
2019-05-29T06:41:28.117Z,14.00
2019-05-29T06:43:56.971Z,15.20
2019-05-29T06:46:25.397Z,15.30
2019-05-29T06:49:00.310Z,14.90
2019-05-29T06:51:24.098Z,16.10
2019-05-29T06:53:52.543Z,17.50
2019-05-29T06:56:20.977Z,18.10
2019-05-29T06:58:49.712Z,18.90
2019-05-29T07:01:18.206Z,18.50
2019-05-29T07:03:48.026Z,17.70
2019-05-29T07:06:17.114Z,17.40
2019-05-29T07:08:48.394Z,18.20
2019-05-29T07:11:15.741Z,18.60
2019-05-29T07:13:47.546Z,17.50
2019-05-29T07:16:14.363Z,16.30
2019-05-29T07:19:20.485Z,15.50
2019-05-29T07:21:32.318Z,15.70
2019-05-29T07:24:01.078Z,15.90
2019-05-29T07:26:29.778Z,16.20
2019-05-29T07:29:07.971Z,16.30
2019-05-29T07:31:33.170Z,16.10
2019-05-29T07:34:04.930Z,16.00
2019-05-29T07:36:33.628Z,15.30
2019-05-29T07:39:03.720Z,16.40
2019-05-29T07:41:32.249Z,17.50
2019-05-29T07:44:00.681Z,18.00
2019-05-29T07:46:29.150Z,18.50
2019-05-29T07:48:58.009Z,18.20
2019-05-29T07:51:26.798Z,17.60
2019-05-29T07:53:55.313Z,16.90
2019-05-29T07:56:23.774Z,16.30
2019-05-29T07:59:02.563Z,17.00
2019-05-29T08:01:24.008Z,16.60
2019-05-29T08:03:52.802Z,16.50
2019-05-29T08:06:21.689Z,15.90
2019-05-29T08:08:50.128Z,15.30
2019-05-29T08:11:18.660Z,14.60
2019-05-29T08:13:47.748Z,14.50
2019-05-29T08:16:16.227Z,14.50
2019-05-29T08:18:46.121Z,15.60
2019-05-29T08:21:15.134Z,16.20
2019-05-29T08:23:44.355Z,16.20
2019-05-29T08:26:12.914Z,15.80
2019-05-29T08:28:42.810Z,15.80
2019-05-29T08:31:13.470Z,15.80
2019-05-29T08:33:42.808Z,15.90
2019-05-29T08:36:11.434Z,15.80
2019-05-29T08:38:42.547Z,16.00
2019-05-29T08:41:10.365Z,15.80
2019-05-29T08:43:38.817Z,15.80
2019-05-29T08:46:07.338Z,16.20
2019-05-29T08:48:35.777Z,16.70
2019-05-29T08:51:04.634Z,17.50
2019-05-29T08:53:33.113Z,17.50
2019-05-29T08:56:01.645Z,17.20
2019-05-29T08:58:30.435Z,16.50
2019-05-29T09:00:59.221Z,16.40
2019-05-29T09:03:28.014Z,16.50
2019-05-29T09:06:08.422Z,16.20
2019-05-29T09:08:26.926Z,16.10
2019-05-29T09:10:55.930Z,15.50
2019-05-29T09:13:24.368Z,15.70
2019-05-29T09:15:52.808Z,16.00
2019-05-29T09:18:21.777Z,16.70
2019-05-29T09:21:02.890Z,16.80
2019-05-29T09:23:21.013Z,17.20
2019-05-29T09:25:49.589Z,16.90
2019-05-29T09:28:18.701Z,16.60
2019-05-29T09:30:47.126Z,16.20
2019-05-29T09:33:18.108Z,16.40
2019-05-29T09:35:46.061Z,16.40
2019-05-29T09:38:15.697Z,16.50
2019-05-29T09:40:44.666Z,16.80
2019-05-29T09:43:13.425Z,16.60
2019-05-29T09:45:42.315Z,16.40
2019-05-29T09:48:11.145Z,16.30
2019-05-29T09:50:50.329Z,16.70
2019-05-29T09:53:10.214Z,17.30
2019-05-29T09:55:38.651Z,17.90
2019-05-29T09:58:07.378Z,18.50
2019-05-29T10:00:36.206Z,18.50
2019-05-29T10:03:05.177Z,18.50
2019-05-29T10:05:33.629Z,18.70
2019-05-29T10:08:02.491Z,18.60
2019-05-29T10:10:32.351Z,18.70
2019-05-29T10:13:02.734Z,18.60
2019-05-29T10:15:31.327Z,18.40
2019-05-29T10:18:00.691Z,17.90
2019-05-29T10:20:29.499Z,17.80
2019-05-29T10:22:58.940Z,17.80
2019-05-29T10:25:47.334Z,18.10
2019-05-29T10:28:15.782Z,18.60
2019-05-29T10:30:44.468Z,18.60
2019-05-29T10:33:14.354Z,18.70
2019-05-29T10:35:44.516Z,18.20
2019-05-29T10:38:13.547Z,17.90
2019-05-29T10:40:45.512Z,17.90
2019-05-29T10:43:12.454Z,17.90
2019-05-29T10:45:40.914Z,18.20
2019-05-29T10:48:09.795Z,18.00
2019-05-29T10:50:38.526Z,17.80
2019-05-29T10:53:06.967Z,18.10
2019-05-29T10:55:35.704Z,18.50
2019-05-29T10:58:04.142Z,18.20
2019-05-29T11:00:32.880Z,17.70
2019-05-29T11:03:01.680Z,17.80
2019-05-29T11:05:30.192Z,17.90
2019-05-29T11:07:58.639Z,18.10
2019-05-29T11:10:28.376Z,18.00
2019-05-29T11:12:56.869Z,18.10
2019-05-29T11:15:25.338Z,18.40
2019-05-29T11:17:53.826Z,19.00
2019-05-29T11:20:24.208Z,19.50
2019-05-29T11:22:53.665Z,19.60
2019-05-29T11:25:27.467Z,19.70
2019-05-29T11:27:54.484Z,19.00
2019-05-29T11:30:23.666Z,18.50
2019-05-29T11:32:54.646Z,18.30
2019-05-29T11:35:22.369Z,18.20
2019-05-29T11:37:52.349Z,17.70
2019-05-29T11:40:21.874Z,17.80
2019-05-29T11:42:50.878Z,18.10
2019-05-29T11:45:20.146Z,18.00
2019-05-29T11:47:48.596Z,18.20
2019-05-29T11:50:20.074Z,18.30
2019-05-29T11:52:48.483Z,18.10
2019-05-29T11:55:18.157Z,18.30
2019-05-29T11:57:46.618Z,18.50
2019-05-29T12:00:20.470Z,18.00
2019-05-29T12:02:46.223Z,18.10
2019-05-29T12:05:15.463Z,18.10
2019-05-29T12:07:43.922Z,17.50
2019-05-29T12:10:12.841Z,17.20
2019-05-29T12:12:41.397Z,16.90
2019-05-29T12:15:15.095Z,17.00
2019-05-29T12:17:41.266Z,17.00
2019-05-29T12:20:26.951Z,17.10
2019-05-29T12:22:41.145Z,17.80
2019-05-29T12:25:10.397Z,18.10
2019-05-29T12:27:38.836Z,18.40
2019-05-29T12:30:09.620Z,18.70
2019-05-29T12:32:38.065Z,19.10
2019-05-29T12:35:08.492Z,19.30
2019-05-29T12:37:36.995Z,19.60
2019-05-29T12:40:29.306Z,19.40
2019-05-29T12:42:59.876Z,19.30
2019-05-29T12:45:28.257Z,19.50
2019-05-29T12:47:58.178Z,19.70
2019-05-29T12:50:27.816Z,19.90
2019-05-29T12:52:57.560Z,20.20
2019-05-29T12:55:26.319Z,20.30
2019-05-29T12:57:55.901Z,20.40
2019-05-29T13:00:25.002Z,20.10
2019-05-29T13:02:54.443Z,19.90
2019-05-29T13:05:24.947Z,19.90
2019-05-29T13:07:54.721Z,19.70
2019-05-29T13:10:30.476Z,19.20
2019-05-29T13:12:58.930Z,19.10
2019-05-29T13:15:24.838Z,19.10
2019-05-29T13:17:57.227Z,19.70
2019-05-29T13:20:24.606Z,19.80
2019-05-29T13:22:53.062Z,19.60
2019-05-29T13:25:21.985Z,20.10
2019-05-29T13:27:50.602Z,20.80
2019-05-29T13:30:19.682Z,21.60
2019-05-29T13:32:48.197Z,21.50
2019-05-29T13:35:21.776Z,22.20
2019-05-29T13:37:48.408Z,22.60
2019-05-29T13:40:18.451Z,22.80
2019-05-29T13:42:46.904Z,23.00
2019-05-29T13:45:18.447Z,21.80
2019-05-29T13:47:46.235Z,20.60
2019-05-29T13:50:16.408Z,20.30
2019-05-29T13:52:44.873Z,20.10
2019-05-29T13:55:14.066Z,19.90
2019-05-29T13:57:42.854Z,19.70
2019-05-29T14:00:32.469Z,19.10
2019-05-29T14:02:46.459Z,18.90
2019-05-29T14:05:16.178Z,19.30
2019-05-29T14:07:44.970Z,19.80
2019-05-29T14:10:15.078Z,20.10
2019-05-29T14:12:43.895Z,20.70
2019-05-29T14:15:14.421Z,21.10
2019-05-29T14:17:43.233Z,21.70
2019-05-29T14:20:13.042Z,21.70
2019-05-29T14:22:41.645Z,22.30
2019-05-29T14:25:11.643Z,22.60
2019-05-29T14:27:40.238Z,22.40
2019-05-29T14:30:10.546Z,22.70
2019-05-29T14:32:39.747Z,22.30
2019-05-29T14:35:10.811Z,22.20
2019-05-29T14:37:38.991Z,21.60
2019-05-29T14:40:09.872Z,21.00
2019-05-29T14:42:38.498Z,20.30
2019-05-29T14:45:08.410Z,20.40
2019-05-29T14:47:36.942Z,20.60
2019-05-29T14:50:11.161Z,21.50
2019-05-29T14:52:47.112Z,22.20
2019-05-29T14:55:18.384Z,22.50
2019-05-29T14:57:47.434Z,22.00
2019-05-29T15:00:24.820Z,21.40
2019-05-29T15:02:48.566Z,21.10
2019-05-29T15:05:18.309Z,20.40
2019-05-29T15:07:46.915Z,19.90
2019-05-29T15:10:27.466Z,20.10
2019-05-29T15:12:46.194Z,20.40
2019-05-29T15:15:16.762Z,20.20
2019-05-29T15:17:45.574Z,20.20
2019-05-29T15:20:16.745Z,19.90
2019-05-29T15:22:45.031Z,19.60
2019-05-29T15:25:23.608Z,19.70
2019-05-29T15:27:45.794Z,19.60
2019-05-29T15:30:19.926Z,19.70
2019-05-29T15:32:44.865Z,19.70
2019-05-29T15:35:17.619Z,19.80
2019-05-29T15:37:44.230Z,19.90
2019-05-29T15:40:13.197Z,19.80
2019-05-29T15:42:41.662Z,19.40
2019-05-29T15:45:13.869Z,19.00
2019-05-29T15:47:42.575Z,19.10
2019-05-29T15:50:13.634Z,19.30
2019-05-29T15:52:42.746Z,19.30
2019-05-29T15:55:24.888Z,19.20
2019-05-29T15:57:42.587Z,19.00
2019-05-29T16:00:13.727Z,19.00
2019-05-29T16:02:42.370Z,18.90
2019-05-29T16:05:12.915Z,18.90
2019-05-29T16:07:41.773Z,19.00
2019-05-29T16:10:14.422Z,18.70
2019-05-29T16:12:42.198Z,18.50
2019-05-29T16:15:15.172Z,18.40
2019-05-29T16:17:44.177Z,18.30
2019-05-29T16:20:14.599Z,18.30
2019-05-29T16:22:43.248Z,18.40
2019-05-29T16:25:12.796Z,18.50
2019-05-29T16:27:41.365Z,18.60
2019-05-29T16:30:13.438Z,18.30
2019-05-29T16:32:42.155Z,18.20
2019-05-29T16:35:13.056Z,17.90
2019-05-29T16:37:41.786Z,17.60
2019-05-29T16:40:13.705Z,17.60
2019-05-29T16:42:42.644Z,17.50
2019-05-29T16:45:12.362Z,17.40
2019-05-29T16:47:41.159Z,17.20
2019-05-29T16:50:10.833Z,17.10
2019-05-29T16:52:39.354Z,17.00
2019-05-29T16:55:08.361Z,16.90
2019-05-29T16:57:38.878Z,16.90
2019-05-29T17:00:10.344Z,17.00
2019-05-29T17:02:39.565Z,17.10
2019-05-29T17:05:08.871Z,17.10
2019-05-29T17:07:37.342Z,17.00
2019-05-29T17:10:07.358Z,16.80
2019-05-29T17:12:35.849Z,16.70
2019-05-29T17:15:07.688Z,16.70
2019-05-29T17:17:36.335Z,16.80
2019-05-29T17:20:08.626Z,16.80
2019-05-29T17:22:37.194Z,16.80
2019-05-29T17:25:06.637Z,16.90
2019-05-29T17:27:36.265Z,16.90
2019-05-29T17:30:07.271Z,16.90
2019-05-29T17:32:35.988Z,16.80
2019-05-29T17:35:07.102Z,16.70
2019-05-29T17:37:35.602Z,16.70
2019-05-29T17:40:07.069Z,16.70
2019-05-29T17:42:35.533Z,16.70
2019-05-29T17:45:07.172Z,16.70
2019-05-29T17:47:35.863Z,16.60
2019-05-29T17:50:07.037Z,16.60
2019-05-29T17:52:35.550Z,16.60
2019-05-29T17:55:07.701Z,16.60
2019-05-29T17:57:36.124Z,16.60
2019-05-29T18:00:11.102Z,16.50
2019-05-29T18:02:51.514Z,16.40
2019-05-29T18:05:10.404Z,16.30
2019-05-29T18:07:38.888Z,16.30
2019-05-29T18:10:08.236Z,16.20
2019-05-29T18:12:38.088Z,16.10
2019-05-29T18:15:07.659Z,16.00
2019-05-29T18:17:36.099Z,15.90
2019-05-29T18:20:07.668Z,15.80
2019-05-29T18:22:36.182Z,15.80
2019-05-29T18:25:06.734Z,15.80
2019-05-29T18:27:35.434Z,15.70
2019-05-29T18:30:07.405Z,15.70
2019-05-29T18:32:41.792Z,15.60
2019-05-29T18:35:10.797Z,15.60
2019-05-29T18:37:39.606Z,15.50
2019-05-29T18:40:12.247Z,15.50
2019-05-29T18:42:39.253Z,15.40
2019-05-29T18:45:20.305Z,15.30
2019-05-29T18:47:39.122Z,15.20
2019-05-29T18:50:29.545Z,15.10
2019-05-29T18:52:58.296Z,15.10
2019-05-29T18:55:27.033Z,14.90
2019-05-29T18:57:55.561Z,14.80
2019-05-29T19:00:43.660Z,14.70
2019-05-29T19:03:12.378Z,14.60
2019-05-29T19:05:43.716Z,14.60
2019-05-29T19:08:11.771Z,14.50
2019-05-29T19:10:40.559Z,14.50
2019-05-29T19:13:09.015Z,14.40
2019-05-29T19:15:37.524Z,14.30
2019-05-29T19:18:05.962Z,14.20
2019-05-29T19:20:34.708Z,14.10
2019-05-29T19:23:03.162Z,14.00
2019-05-29T19:25:32.934Z,13.90
2019-05-29T19:28:01.811Z,13.70
2019-05-29T19:30:30.958Z,13.70
2019-05-29T19:32:59.785Z,13.60
2019-05-29T19:35:29.513Z,13.50
2019-05-29T19:37:58.185Z,13.50
2019-05-29T19:40:28.018Z,13.40
2019-05-29T19:42:56.665Z,13.30
2019-05-29T19:45:28.585Z,13.20
2019-05-29T19:47:57.744Z,13.10
2019-05-29T19:50:26.754Z,13.00
2019-05-29T19:52:55.289Z,12.90
2019-05-29T19:55:23.718Z,12.80
2019-05-29T19:57:56.077Z,12.70
2019-05-29T20:00:22.971Z,12.50
2019-05-29T20:02:51.422Z,12.50
2019-05-29T20:05:20.126Z,12.40
2019-05-29T20:07:48.918Z,12.30
2019-05-29T20:10:17.818Z,12.20
2019-05-29T20:12:47.217Z,12.10
2019-05-29T20:15:16.750Z,12.00
2019-05-29T20:17:45.522Z,11.90
2019-05-29T20:20:14.299Z,11.90
2019-05-29T20:22:43.118Z,11.80
2019-05-29T20:25:13.829Z,11.70
2019-05-29T20:27:42.614Z,11.60
2019-05-29T20:30:19.174Z,11.50
2019-05-29T20:32:49.198Z,11.50
2019-05-29T20:35:17.842Z,11.40
2019-05-29T20:37:46.568Z,11.30
2019-05-29T20:40:15.601Z,11.20
2019-05-29T20:42:44.063Z,11.20
2019-05-29T20:45:12.675Z,11.10
2019-05-29T20:47:42.116Z,11.00
2019-05-29T20:50:13.443Z,11.00
2019-05-29T20:52:41.894Z,11.00
2019-05-29T20:55:11.291Z,10.90
2019-05-29T20:57:40.080Z,10.90
2019-05-29T21:00:11.082Z,10.90
2019-05-29T21:02:40.404Z,10.80
2019-05-29T21:05:09.592Z,10.80
2019-05-29T21:07:39.381Z,10.70
2019-05-29T21:10:08.675Z,10.60
2019-05-29T21:12:37.923Z,10.60
2019-05-29T21:15:08.501Z,10.50
2019-05-29T21:17:37.888Z,10.50
2019-05-29T21:20:08.040Z,10.50
2019-05-29T21:22:36.597Z,10.40
2019-05-29T21:25:12.432Z,10.40
2019-05-29T21:27:43.273Z,10.40
2019-05-29T21:30:09.678Z,10.40
2019-05-29T21:32:40.029Z,10.40
2019-05-29T21:35:09.025Z,10.40
2019-05-29T21:37:38.213Z,10.30
2019-05-29T21:40:07.342Z,10.20
2019-05-29T21:42:36.579Z,10.20
2019-05-29T21:45:06.399Z,10.10
2019-05-29T21:47:34.835Z,10.10
2019-05-29T21:50:04.937Z,10.00
2019-05-29T21:52:33.445Z,10.00
2019-05-29T21:55:01.968Z,9.90
2019-05-29T21:57:30.469Z,9.90
2019-05-29T21:59:58.937Z,9.80
2019-05-29T22:02:27.366Z,9.80
2019-05-29T22:04:56.138Z,9.80
2019-05-29T22:07:24.846Z,9.80
2019-05-29T22:09:54.474Z,9.70
2019-05-29T22:12:24.011Z,9.60
2019-05-29T22:14:53.345Z,9.60
2019-05-29T22:17:24.251Z,9.50
2019-05-29T22:19:52.869Z,9.60
2019-05-29T22:22:21.794Z,9.50
2019-05-29T22:24:51.076Z,9.50
2019-05-29T22:27:19.766Z,9.40
2019-05-29T22:29:48.210Z,9.40
2019-05-29T22:32:16.963Z,9.40
2019-05-29T22:34:45.798Z,9.30
2019-05-29T22:37:14.270Z,9.30
2019-05-29T22:39:43.034Z,9.20
2019-05-29T22:42:12.470Z,9.30
2019-05-29T22:44:40.917Z,9.30
2019-05-29T22:47:10.026Z,9.30
2019-05-29T22:49:38.501Z,9.40
2019-05-29T22:52:06.925Z,9.30
2019-05-29T22:54:35.385Z,9.20
2019-05-29T22:57:04.989Z,9.20
2019-05-29T22:59:33.781Z,9.10
2019-05-29T23:02:02.627Z,9.00
2019-05-29T23:04:31.166Z,9.00
2019-05-29T23:07:00.449Z,8.90
2019-05-29T23:09:29.345Z,8.90
2019-05-29T23:11:58.797Z,8.90
2019-05-29T23:14:27.235Z,8.90
2019-05-29T23:16:56.471Z,8.90
2019-05-29T23:19:25.037Z,8.90
2019-05-29T23:21:54.414Z,8.90
2019-05-29T23:24:22.935Z,8.80
2019-05-29T23:26:52.929Z,8.80
2019-05-29T23:29:21.610Z,8.80
2019-05-29T23:31:50.066Z,8.80
2019-05-29T23:34:18.807Z,8.70
2019-05-29T23:36:47.258Z,8.70
2019-05-29T23:39:15.704Z,8.70
2019-05-29T23:41:45.475Z,8.70
2019-05-29T23:44:14.911Z,8.70
2019-05-29T23:46:43.686Z,8.70
2019-05-29T23:49:12.126Z,8.70
2019-05-29T23:51:40.577Z,8.60
2019-05-29T23:54:09.358Z,8.50
2019-05-29T23:56:37.843Z,8.50
2019-05-29T23:59:06.577Z,8.50
